createdAt,value
2023-05-01T00:01:17.769Z,56.37
2023-05-01T00:06:22.198Z,55.92
2023-05-01T00:11:24.967Z,59.83
2023-05-01T00:16:27.756Z,61.11
2023-05-01T00:21:31.114Z,58.10
2023-05-01T00:26:33.894Z,66.73
2023-05-01T00:31:36.859Z,74.51
2023-05-01T00:36:40.412Z,67.31
2023-05-01T00:41:43.225Z,61.16
2023-05-01T00:46:46.125Z,56.05
2023-05-01T00:51:53.392Z,57.01
2023-05-01T00:56:56.537Z,61.59
2023-05-01T01:01:59.565Z,69.13
2023-05-01T01:07:10.652Z,66.32
2023-05-01T01:12:27.573Z,61.21
2023-05-01T01:17:42.449Z,55.47
2023-05-01T01:22:53.540Z,54.97
2023-05-01T01:28:11.797Z,53.62
2023-05-01T01:33:24.098Z,57.11
2023-05-01T01:38:36.528Z,65.71
2023-05-01T01:43:44.117Z,70.95
2023-05-01T01:48:51.560Z,63.78
2023-05-01T01:53:58.802Z,58.96
2023-05-01T01:59:04.583Z,55.90
2023-05-01T02:04:08.939Z,58.16
2023-05-01T02:09:12.929Z,54.63
2023-05-01T02:14:18.507Z,54.79
2023-05-01T02:19:21.853Z,54.95
2023-05-01T02:24:25.503Z,57.17
2023-05-01T02:29:28.374Z,58.79
2023-05-01T02:34:34.847Z,58.79
2023-05-01T02:39:38.711Z,59.72
2023-05-01T02:45:11.671Z,60.04
2023-05-01T02:50:16.318Z,59.68
2023-05-01T02:55:19.675Z,61.54
2023-05-01T03:00:23.613Z,61.14
2023-05-01T03:05:27.023Z,69.61
2023-05-01T03:10:29.768Z,76.98
2023-05-01T03:15:32.576Z,71.34
2023-05-01T03:20:35.580Z,65.18
2023-05-01T03:25:38.328Z,61.99
2023-05-01T03:30:41.028Z,56.98
2023-05-01T03:35:44.434Z,55.88
2023-05-01T03:40:47.498Z,57.86
2023-05-01T03:45:51.450Z,65.69
2023-05-01T03:50:54.229Z,66.45
2023-05-01T03:55:57.560Z,63.24
2023-05-01T04:01:01.085Z,55.87
2023-05-01T04:06:04.189Z,53.39
2023-05-01T04:11:07.610Z,57.40
2023-05-01T04:16:10.592Z,60.11
2023-05-01T04:21:14.736Z,67.20
2023-05-01T04:26:17.668Z,67.63
2023-05-01T04:31:20.552Z,62.44
2023-05-01T04:36:23.535Z,54.27
2023-05-01T04:41:26.357Z,52.15
2023-05-01T04:46:29.273Z,54.85
2023-05-01T04:51:32.245Z,56.02
2023-05-01T04:56:35.162Z,56.47
2023-05-01T05:01:37.997Z,58.42
2023-05-01T05:06:40.822Z,58.91
2023-05-01T05:11:43.891Z,59.62
2023-05-01T05:16:47.003Z,60.62
2023-05-01T05:21:49.868Z,65.34
2023-05-01T05:26:52.785Z,58.15
2023-05-01T05:31:57.221Z,55.58
2023-05-01T05:36:59.964Z,55.49
2023-05-01T05:42:04.241Z,56.08
2023-05-01T05:47:07.282Z,57.67
2023-05-01T05:52:10.084Z,57.32
2023-05-01T05:57:13.074Z,55.58
2023-05-01T06:02:16.032Z,54.41
2023-05-01T06:07:18.899Z,51.87
2023-05-01T06:12:21.793Z,51.74
2023-05-01T06:17:25.621Z,52.54
2023-05-01T06:22:28.440Z,48.41
2023-05-01T06:27:31.194Z,48.99
2023-05-01T06:32:33.952Z,46.11
2023-05-01T06:37:38.511Z,46.74
2023-05-01T06:42:42.224Z,44.37
2023-05-01T06:47:45.127Z,42.27
2023-05-01T06:52:48.010Z,43.89
2023-05-01T06:57:50.894Z,42.80
2023-05-01T07:02:53.841Z,40.92
2023-05-01T07:08:01.170Z,39.60
2023-05-01T07:13:04.527Z,38.73
2023-05-01T07:18:07.345Z,38.10
2023-05-01T07:23:10.439Z,36.15
2023-05-01T07:28:13.228Z,35.55
2023-05-01T07:33:16.753Z,34.84
2023-05-01T07:38:19.702Z,34.28
2023-05-01T07:43:23.222Z,34.12
2023-05-01T07:48:28.449Z,34.06
2023-05-01T07:53:31.957Z,33.36
2023-05-01T07:58:36.442Z,33.19
2023-05-01T08:03:39.449Z,33.12
2023-05-01T08:08:42.418Z,32.17
2023-05-01T08:13:45.329Z,32.70
2023-05-01T08:18:48.086Z,30.93
2023-05-01T08:23:51.431Z,31.30
2023-05-01T08:28:54.268Z,28.71
2023-05-01T08:33:57.658Z,28.37
2023-05-01T08:39:00.479Z,28.58
2023-05-01T08:44:04.438Z,28.01
2023-05-01T08:49:11.617Z,26.94
2023-05-01T08:54:15.928Z,25.64
2023-05-01T08:59:20.706Z,25.94
2023-05-01T09:04:23.914Z,26.62
2023-05-01T09:09:28.007Z,26.61
2023-05-01T09:14:32.048Z,25.74
2023-05-01T09:19:34.920Z,25.21
2023-05-01T09:24:37.658Z,25.18
2023-05-01T09:29:46.110Z,24.74
2023-05-01T09:34:50.711Z,24.12
2023-05-01T09:40:11.382Z,23.67
2023-05-01T09:45:15.304Z,23.35
2023-05-01T09:50:35.000Z,23.37
2023-05-01T09:55:37.978Z,21.48
2023-05-01T10:00:50.082Z,20.51
2023-05-01T10:05:53.103Z,19.63
2023-05-01T10:11:05.377Z,20.29
2023-05-01T10:16:27.927Z,20.22
2023-05-01T10:21:34.523Z,20.45
2023-05-01T10:26:38.078Z,20.81
2023-05-01T10:31:42.703Z,20.99
2023-05-01T10:36:53.700Z,19.86
2023-05-01T10:41:59.722Z,18.87
2023-05-01T10:47:24.811Z,19.61
2023-05-01T10:52:27.901Z,18.90
2023-05-01T10:57:44.592Z,17.57
2023-05-01T11:02:47.386Z,18.18
2023-05-01T11:08:29.192Z,18.16
2023-05-01T11:14:04.369Z,18.76
2023-05-01T11:19:23.336Z,17.75
2023-05-01T11:24:33.153Z,18.03
2023-05-01T11:29:37.716Z,16.65
2023-05-01T11:34:40.853Z,16.60
2023-05-01T11:39:51.127Z,16.94
2023-05-01T11:45:08.008Z,16.44
2023-05-01T11:50:11.714Z,16.28
2023-05-01T11:55:14.617Z,16.98
2023-05-01T12:00:27.946Z,17.07
2023-05-01T12:05:32.148Z,16.27
2023-05-01T12:10:36.359Z,16.24
2023-05-01T12:15:50.809Z,16.55
2023-05-01T12:20:55.437Z,16.01
2023-05-01T12:25:58.399Z,15.14
2023-05-01T12:31:05.173Z,15.40
2023-05-01T12:36:13.013Z,15.45
2023-05-01T12:41:15.800Z,15.26
2023-05-01T12:46:18.707Z,15.02
2023-05-01T12:51:22.989Z,14.76
2023-05-01T12:56:26.027Z,14.71
2023-05-01T13:01:29.319Z,14.88
2023-05-01T13:06:35.555Z,14.87
2023-05-01T13:11:39.007Z,14.34
2023-05-01T13:16:49.840Z,14.29
2023-05-01T13:21:52.675Z,14.69
2023-05-01T13:27:02.377Z,15.44
2023-05-01T13:32:11.088Z,15.68
2023-05-01T13:37:14.114Z,16.34
2023-05-01T13:42:27.253Z,16.30
2023-05-01T13:47:30.105Z,16.29
2023-05-01T13:52:33.059Z,16.66
2023-05-01T13:57:38.559Z,16.82
2023-05-01T14:02:48.774Z,16.76
2023-05-01T14:07:57.199Z,16.45
2023-05-01T14:13:00.641Z,16.28
2023-05-01T14:18:07.551Z,16.43
2023-05-01T14:23:10.772Z,15.89
2023-05-01T14:28:14.812Z,15.79
2023-05-01T14:33:17.756Z,16.21
2023-05-01T14:38:25.850Z,16.79
2023-05-01T14:43:28.721Z,16.83
2023-05-01T14:48:36.014Z,17.16
2023-05-01T14:53:42.629Z,17.19
2023-05-01T14:58:46.968Z,17.88
2023-05-01T15:03:50.056Z,17.60
2023-05-01T15:08:53.114Z,17.09
2023-05-01T15:13:56.336Z,16.67
2023-05-01T15:18:59.610Z,16.62
2023-05-01T15:24:02.941Z,17.93
2023-05-01T15:29:05.678Z,20.23
2023-05-01T15:34:08.475Z,22.30
2023-05-01T15:39:12.109Z,23.99
2023-05-01T15:44:15.205Z,25.30
2023-05-01T15:49:18.677Z,25.94
2023-05-01T15:54:21.891Z,26.61
2023-05-01T15:59:25.672Z,27.30
2023-05-01T16:04:28.520Z,27.59
2023-05-01T16:09:32.433Z,27.84
2023-05-01T16:14:42.225Z,27.92
2023-05-01T16:19:45.970Z,28.02
2023-05-01T16:24:49.234Z,27.73
2023-05-01T16:29:52.347Z,28.12
2023-05-01T16:34:55.064Z,28.09
2023-05-01T16:39:59.649Z,28.57
2023-05-01T16:45:02.949Z,28.73
2023-05-01T16:50:09.824Z,29.40
2023-05-01T16:55:13.279Z,29.70
2023-05-01T17:00:17.139Z,30.12
2023-05-01T17:05:20.499Z,30.59
2023-05-01T17:10:23.278Z,30.62
2023-05-01T17:15:26.305Z,30.63
2023-05-01T17:20:29.067Z,31.15
2023-05-01T17:25:32.077Z,31.93
2023-05-01T17:30:35.446Z,32.00
2023-05-01T17:35:38.295Z,32.92
2023-05-01T17:40:41.306Z,33.67
2023-05-01T17:45:45.685Z,34.03
2023-05-01T17:50:49.161Z,34.42
2023-05-01T17:55:51.999Z,35.43
2023-05-01T18:00:55.899Z,36.29
2023-05-01T18:06:04.574Z,35.76
2023-05-01T18:11:07.532Z,36.45
2023-05-01T18:16:11.325Z,36.14
2023-05-01T18:21:14.782Z,36.08
2023-05-01T18:26:17.881Z,36.91
2023-05-01T18:31:20.916Z,38.17
2023-05-01T18:36:24.204Z,39.73
2023-05-01T18:41:27.419Z,39.98
2023-05-01T18:46:30.362Z,39.08
2023-05-01T18:51:33.435Z,40.05
2023-05-01T18:56:36.230Z,40.04
2023-05-01T19:01:39.093Z,41.12
2023-05-01T19:06:41.949Z,40.93
2023-05-01T19:11:44.938Z,40.77
2023-05-01T19:16:47.914Z,40.92
2023-05-01T19:21:51.213Z,41.17
2023-05-01T19:26:54.054Z,41.36
2023-05-01T19:31:57.034Z,41.92
2023-05-01T19:37:02.084Z,42.09
2023-05-01T19:42:05.006Z,42.46
2023-05-01T19:47:07.832Z,42.85
2023-05-01T19:52:10.678Z,42.59
2023-05-01T19:57:13.462Z,42.80
2023-05-01T20:02:16.485Z,43.31
2023-05-01T20:07:19.341Z,43.60
2023-05-01T20:12:25.117Z,43.58
2023-05-01T20:17:28.026Z,44.09
2023-05-01T20:22:30.773Z,44.31
2023-05-01T20:27:33.729Z,44.76
2023-05-01T20:37:44.862Z,46.16
2023-05-01T20:42:47.766Z,46.16
2023-05-01T20:47:50.582Z,46.45
2023-05-01T20:52:55.681Z,48.30
2023-05-01T20:57:58.759Z,46.77
2023-05-01T21:03:01.957Z,47.02
2023-05-01T21:08:04.943Z,48.98
2023-05-01T21:13:07.673Z,48.58
2023-05-01T21:18:14.337Z,48.96
2023-05-01T21:23:17.899Z,48.79
2023-05-01T21:28:20.865Z,49.00
2023-05-01T21:33:23.687Z,49.82
2023-05-01T21:38:26.786Z,50.12
2023-05-01T21:43:33.795Z,49.27
2023-05-01T21:48:36.586Z,50.23
2023-05-01T21:53:41.120Z,51.08
2023-05-01T21:58:44.007Z,51.28
2023-05-01T22:03:46.909Z,51.55
2023-05-01T22:08:53.215Z,51.54
2023-05-01T22:13:56.946Z,51.73
2023-05-01T22:19:00.596Z,52.40
2023-05-01T22:24:03.605Z,52.07
2023-05-01T22:29:06.981Z,52.40
2023-05-01T22:34:10.049Z,52.27
2023-05-01T22:39:12.799Z,52.39
2023-05-01T22:44:15.993Z,52.66
2023-05-01T22:49:19.008Z,52.16
2023-05-01T22:54:22.230Z,52.65
2023-05-01T22:59:26.043Z,52.63
2023-05-01T23:04:29.427Z,52.71
2023-05-01T23:09:32.563Z,52.59
2023-05-01T23:14:41.188Z,52.66
2023-05-01T23:19:45.620Z,52.69
2023-05-01T23:24:49.437Z,52.71
2023-05-01T23:29:54.896Z,52.39
2023-05-01T23:35:05.126Z,52.58
2023-05-01T23:40:09.642Z,52.56
2023-05-01T23:45:12.974Z,52.27
2023-05-01T23:50:16.197Z,52.62
2023-05-01T23:55:19.083Z,52.80
